Time;durP1;ratioP1;P1;durP2;ratioP2;P2;SDS_P1;SDS_P2;PMS_P1;PMS_P2;Temp;Humidity;BMP_temperature;BMP_pressure;BME280_temperature;BME280_humidity;BME280_pressure;Samples;Min_cycle;Max_cycle;Signal;HPM_P1;HPM_P2
2024/01/14 00:01:16;;;;;;;2.40;1.20;;;19.70;47.70;;;;;;5054306;28;20103;-26
2024/01/14 00:03:43;;;;;;;3.85;1.30;;;18.80;47.50;;;;;;5052221;28;20103;-26
2024/01/14 00:06:10;;;;;;;1.90;1.17;;;;;;;;;;5052580;28;20493;-28
2024/01/14 00:08:37;;;;;;;2.10;1.02;;;;;;;;;;5052850;28;20068;-27
2024/01/14 00:11:04;;;;;;;2.20;1.02;;;19.60;47.60;;;;;;5069816;28;20533;-26
2024/01/14 00:13:32;;;;;;;1.95;1.08;;;20.00;48.10;;;;;;5072780;28;20049;-27
2024/01/14 00:15:59;;;;;;;2.95;1.00;;;19.50;47.90;;;;;;5072619;28;20048;-26
2024/01/14 00:18:26;;;;;;;3.05;1.30;;;;;;;;;;5063931;28;20052;-26
2024/01/14 00:20:53;;;;;;;2.55;1.27;;;19.30;47.50;;;;;;5072480;28;20048;-26
2024/01/14 00:23:20;;;;;;;2.00;1.00;;;19.10;46.40;;;;;;5072339;28;20075;-26
2024/01/14 00:25:47;;;;;;;2.75;1.20;;;;;;;;;;5072209;28;20106;-31
2024/01/14 00:28:14;;;;;;;2.90;1.15;;;19.10;47.80;;;;;;5072710;28;20056;-26
2024/01/14 00:30:42;;;;;;;3.53;1.27;;;18.40;47.50;;;;;;5072317;28;20101;-25
2024/01/14 00:33:09;;;;;;;2.35;1.30;;;19.00;48.10;;;;;;5070670;28;20052;-26
2024/01/14 00:35:35;;;;;;;2.90;1.38;;;18.50;45.10;;;;;;5052055;28;20494;-26
2024/01/14 00:38:02;;;;;;;2.08;1.20;;;18.20;47.60;;;;;;5069861;28;20048;-26
2024/01/14 00:40:30;;;;;;;3.03;1.33;;;;;;;;;;5071999;28;20052;-29
2024/01/14 00:42:57;;;;;;;3.72;1.30;;;19.20;48.60;;;;;;5072110;28;20059;-26
2024/01/14 00:45:23;;;;;;;2.03;1.02;;;19.00;48.20;;;;;;5072319;28;20052;-30
2024/01/14 00:47:51;;;;;;;2.20;0.90;;;18.90;43.10;;;;;;5072191;28;20056;-26
2024/01/14 00:50:18;;;;;;;2.90;1.20;;;19.40;48.60;;;;;;5067205;28;20053;-26
2024/01/14 00:52:45;;;;;;;2.22;1.00;;;18.90;48.40;;;;;;5051717;28;20061;-26
2024/01/14 00:55:12;;;;;;;2.30;1.08;;;18.70;43.00;;;;;;5052110;28;20095;-27
2024/01/14 00:57:39;;;;;;;4.22;1.20;;;;;;;;;;5052149;28;20049;-26
2024/01/14 01:00:09;;;;;;;3.92;1.35;;;18.80;43.10;;;;;;5051883;28;20049;-29
2024/01/14 01:02:35;;;;;;;2.13;1.10;;;18.60;48.20;;;;;;5052058;28;20049;-26
2024/01/14 01:05:04;;;;;;;3.20;1.38;;;19.10;44.70;;;;;;5051683;28;20053;-27
2024/01/14 01:07:31;;;;;;;2.70;1.10;;;18.90;48.80;;;;;;5060162;28;20131;-26
2024/01/14 01:09:58;;;;;;;2.25;0.95;;;;;;;;;;5071498;28;20513;-29
2024/01/14 01:12:25;;;;;;;2.58;1.13;;;18.80;46.80;;;;;;5071970;28;20049;-26
2024/01/14 01:14:52;;;;;;;2.95;1.50;;;18.40;48.60;;;;;;5071275;28;20074;-26
2024/01/14 01:17:19;;;;;;;2.78;1.30;;;18.90;45.50;;;;;;5071718;28;20045;-27
2024/01/14 01:19:46;;;;;;;3.45;1.30;;;18.70;48.60;;;;;;5071535;28;20505;-26
2024/01/14 01:22:14;;;;;;;2.33;1.30;;;18.60;43.40;;;;;;5071735;28;20056;-30
2024/01/14 01:24:41;;;;;;;2.60;1.10;;;;;;;;;;5057112;28;20114;-30
2024/01/14 01:27:08;;;;;;;3.03;1.33;;;18.50;49.00;;;;;;5051569;28;20091;-26
2024/01/14 01:29:35;;;;;;;2.85;1.10;;;;;;;;;;5051256;28;20053;-29
2024/01/14 01:32:02;;;;;;;3.42;1.20;;;18.40;45.90;;;;;;5051631;28;20049;-26
2024/01/14 01:34:29;;;;;;;2.28;1.10;;;;;;;;;;5051366;28;20490;-31
2024/01/14 01:36:56;;;;;;;1.92;1.00;;;18.60;48.80;;;;;;5060120;28;20045;-26
2024/01/14 01:39:24;;;;;;;2.08;1.17;;;18.50;47.90;;;;;;5071275;28;20452;-26
2024/01/14 01:41:51;;;;;;;2.42;1.10;;;18.10;48.70;;;;;;5054744;28;20095;-26
2024/01/14 01:44:19;;;;;;;1.80;1.00;;;18.60;44.70;;;;;;5069857;28;20098;-26
2024/01/14 01:46:46;;;;;;;2.70;1.13;;;;;;;;;;5071420;28;20086;-29
2024/01/14 01:49:12;;;;;;;2.55;1.23;;;18.50;49.00;;;;;;5071230;28;20048;-26
2024/01/14 01:51:40;;;;;;;2.17;1.00;;;;;;;;;;5071648;28;20053;-31
2024/01/14 01:54:08;;;;;;;2.17;1.02;;;18.30;49.30;;;;;;5071543;28;20045;-26
2024/01/14 01:56:37;;;;;;;3.53;1.23;;;18.30;49.30;;;;;;5069525;28;20041;-26
2024/01/14 01:59:04;;;;;;;1.73;0.90;;;18.30;47.30;;;;;;5071372;28;20052;-27
2024/01/14 02:01:32;;;;;;;3.03;1.10;;;18.00;48.90;;;;;;5071185;28;20060;-26
2024/01/14 02:03:59;;;;;;;2.38;1.00;;;18.40;49.20;;;;;;5071291;28;20052;-27
2024/01/14 02:06:26;;;;;;;2.90;1.10;;;18.30;43.80;;;;;;5071330;28;20105;-29
2024/01/14 02:08:53;;;;;;;2.15;1.05;;;18.10;49.40;;;;;;5071397;28;20044;-26
2024/01/14 02:11:20;;;;;;;1.98;0.95;;;18.50;49.40;;;;;;5071073;28;20049;-26
2024/01/14 02:13:48;;;;;;;1.90;0.93;;;18.50;47.10;;;;;;5061848;28;20045;-26
2024/01/14 02:16:16;;;;;;;3.08;1.05;;;18.20;48.90;;;;;;5050734;28;20048;-26
2024/01/14 02:18:43;;;;;;;2.67;1.08;;;19.00;49.80;;;;;;5051342;28;20072;-27
2024/01/14 02:21:10;;;;;;;2.50;1.15;;;18.10;49.60;;;;;;5051092;28;20053;-26
2024/01/14 02:23:40;;;;;;;2.55;1.00;;;18.30;43.90;;;;;;5050933;28;20053;-29
2024/01/14 02:26:09;;;;;;;3.47;1.10;;;18.30;49.40;;;;;;5050995;28;20049;-26
2024/01/14 02:28:36;;;;;;;2.88;0.90;;;19.00;45.10;;;;;;5053406;28;20107;-26
2024/01/14 02:31:03;;;;;;;2.03;1.00;;;18.40;44.60;;;;;;5055995;28;20052;-28
2024/01/14 02:33:30;;;;;;;2.75;1.25;;;19.00;50.10;;;;;;5054774;28;20049;-26
2024/01/14 02:35:56;;;;;;;1.70;0.90;;;18.20;49.50;;;;;;5054565;28;20179;-26
2024/01/14 02:38:23;;;;;;;2.90;1.00;;;18.70;47.00;;;;;;5073171;28;20459;-27
2024/01/14 02:40:50;;;;;;;3.00;1.30;;;18.50;49.80;;;;;;5074504;28;20090;-26
2024/01/14 02:43:18;;;;;;;1.88;0.98;;;18.30;49.80;;;;;;5074383;28;20117;-26
2024/01/14 02:45:45;;;;;;;1.77;0.88;;;18.50;49.80;;;;;;5070225;28;20480;-26
2024/01/14 02:48:12;;;;;;;2.55;1.33;;;;;;;;;;5055722;28;20056;-26
2024/01/14 02:50:39;;;;;;;1.98;0.90;;;;;;;;;;5054226;28;20650;-27
2024/01/14 02:53:07;;;;;;;2.38;0.98;;;18.30;49.40;;;;;;5054245;28;20494;-26
2024/01/14 02:55:34;;;;;;;2.08;0.98;;;17.90;49.20;;;;;;5054055;28;20045;-26
2024/01/14 02:58:01;;;;;;;2.03;1.00;;;18.50;49.60;;;;;;5053993;28;20053;-26
2024/01/14 03:00:29;;;;;;;1.40;0.82;;;18.70;44.00;;;;;;5067499;28;20052;-28
2024/01/14 03:02:56;;;;;;;2.90;0.90;;;;;;;;;;5065781;28;20053;-27
2024/01/14 03:05:23;;;;;;;0.93;0.70;;;17.60;48.60;;;;;;5054115;28;20044;-26
2024/01/14 03:07:50;;;;;;;2.53;1.15;;;;;;;;;;5054058;28;20119;-29
2024/01/14 03:10:17;;;;;;;2.08;1.00;;;18.70;49.40;;;;;;5064375;28;20497;-26
2024/01/14 03:12:44;;;;;;;2.15;0.85;;;;;;;;;;5074210;28;20052;-29
2024/01/14 03:15:11;;;;;;;1.73;0.80;;;17.80;48.60;;;;;;5073855;28;20558;-26
2024/01/14 03:17:39;;;;;;;2.38;1.17;;;18.70;43.50;;;;;;5073995;28;20391;-28
2024/01/14 03:20:07;;;;;;;2.25;0.88;;;18.70;43.40;;;;;;5056799;28;20048;-30
2024/01/14 03:22:34;;;;;;;2.88;0.80;;;18.60;49.00;;;;;;5053704;28;20103;-26
2024/01/14 03:25:00;;;;;;;2.67;0.98;;;18.20;45.30;;;;;;5052357;28;20110;-28
2024/01/14 03:27:27;;;;;;;1.30;0.70;;;18.40;47.80;;;;;;5053506;28;20053;-26
2024/01/14 03:29:54;;;;;;;2.13;0.98;;;18.10;48.30;;;;;;5053587;28;20560;-26
2024/01/14 03:32:21;;;;;;;1.85;0.90;;;18.90;46.80;;;;;;5053688;28;20049;-27
2024/01/14 03:34:49;;;;;;;1.90;0.90;;;19.10;49.00;;;;;;5054396;28;20494;-26
2024/01/14 03:37:16;;;;;;;2.25;0.90;;;18.80;46.30;;;;;;5064607;28;20048;-26
2024/01/14 03:39:43;;;;;;;1.55;0.90;;;;;;;;;;5073002;28;20442;-30
2024/01/14 03:42:10;;;;;;;1.70;0.93;;;19.00;48.60;;;;;;5073428;28;20053;-26
2024/01/14 03:44:36;;;;;;;1.27;0.80;;;19.10;48.60;;;;;;5073394;28;20110;-26
2024/01/14 03:47:03;;;;;;;1.80;0.80;;;19.30;46.80;;;;;;5073415;28;20099;-27
2024/01/14 03:49:31;;;;;;;3.10;1.13;;;19.00;48.80;;;;;;5073116;28;20052;-26
2024/01/14 03:51:59;;;;;;;1.75;0.85;;;19.00;48.40;;;;;;5063651;28;20060;-26
2024/01/14 03:54:26;;;;;;;0.82;0.70;;;;;;;;;;5053243;28;20102;-26
2024/01/14 03:56:53;;;;;;;2.08;1.02;;;;;;;;;;5067806;28;20734;-27
2024/01/14 03:59:21;;;;;;;0.75;0.70;;;18.80;48.20;;;;;;5073038;28;20044;-27
2024/01/14 04:01:48;;;;;;;1.98;0.85;;;19.00;46.20;;;;;;5072919;28;20131;-28
2024/01/14 04:04:14;;;;;;;2.08;1.10;;;18.60;48.40;;;;;;5072984;28;20509;-26
2024/01/14 04:06:42;;;;;;;1.55;0.90;;;;;;;;;;5072398;28;20056;-30
2024/01/14 04:09:10;;;;;;;2.63;1.00;;;19.30;48.40;;;;;;5073103;28;20082;-25
2024/01/14 04:11:37;;;;;;;2.75;1.00;;;18.90;48.20;;;;;;5056932;28;20056;-25
2024/01/14 04:14:04;;;;;;;2.25;1.20;;;19.30;47.30;;;;;;5052919;28;20464;-26
2024/01/14 04:16:36;;;;;;;1.30;0.70;;;19.20;48.40;;;;;;5052775;28;20053;-25
2024/01/14 04:19:03;;;;;;;1.67;0.80;;;19.50;48.80;;;;;;5052852;28;20466;-33
2024/01/14 04:21:30;;;;;;;1.23;0.70;;;;;;;;;;5064451;28;20052;-31
2024/01/14 04:23:58;;;;;;;2.30;0.93;;;19.30;48.40;;;;;;5052792;28;20494;-34
2024/01/14 04:26:26;;;;;;;2.17;1.00;;;19.90;48.70;;;;;;5052513;28;20053;-32
2024/01/14 04:28:53;;;;;;;2.00;0.85;;;18.80;48.40;;;;;;5052495;28;20056;-35
2024/01/14 04:31:20;;;;;;;2.03;1.00;;;19.30;48.60;;;;;;5052392;28;20052;-32
2024/01/14 04:33:47;;;;;;;2.08;0.93;;;19.00;43.40;;;;;;5052092;28;20114;-29
2024/01/14 04:36:14;;;;;;;1.42;1.00;;;18.80;48.30;;;;;;5055058;28;20044;-32
2024/01/14 04:38:41;;;;;;;2.03;1.00;;;19.20;42.90;;;;;;5063436;28;20095;-31
2024/01/14 04:41:08;;;;;;;2.03;0.70;;;19.10;48.40;;;;;;5052422;28;20119;-31
2024/01/14 04:43:36;;;;;;;1.60;0.90;;;19.00;48.10;;;;;;5052308;28;20107;-34
2024/01/14 04:46:03;;;;;;;1.50;0.68;;;;;;;;;;5052057;28;20049;-34
2024/01/14 04:48:30;;;;;;;2.05;1.17;;;19.30;48.30;;;;;;5052299;28;20102;-36
2024/01/14 04:50:57;;;;;;;2.75;1.15;;;;;;;;;;5051401;28;20049;-31
2024/01/14 04:53:24;;;;;;;1.92;1.00;;;19.10;48.10;;;;;;5069232;28;20056;-35
2024/01/14 04:55:51;;;;;;;1.88;0.90;;;;;;;;;;5059801;28;20493;-32
2024/01/14 04:58:18;;;;;;;1.60;0.80;;;19.30;48.40;;;;;;5052115;28;20045;-33
2024/01/14 05:00:46;;;;;;;1.52;0.90;;;18.90;48.20;;;;;;5051460;28;20498;-32
2024/01/14 05:03:13;;;;;;;2.47;0.90;;;19.40;48.40;;;;;;5052149;28;20053;-32
2024/01/14 05:05:40;;;;;;;2.65;1.20;;;19.40;48.10;;;;;;5052403;28;20095;-32
2024/01/14 05:08:07;;;;;;;1.70;0.90;;;19.00;47.90;;;;;;5072016;28;20113;-34
2024/01/14 05:10:34;;;;;;;2.40;1.13;;;19.50;46.20;;;;;;5070360;28;20098;-31
2024/01/14 05:13:00;;;;;;;1.88;1.00;;;18.90;48.10;;;;;;5055874;28;20090;-33
2024/01/14 05:15:28;;;;;;;1.70;0.98;;;;;;;;;;5051609;28;20126;-32
2024/01/14 05:17:56;;;;;;;2.00;0.90;;;19.10;48.10;;;;;;5051637;28;20052;-35
2024/01/14 05:20:22;;;;;;;2.10;1.00;;;19.60;48.20;;;;;;5051545;28;20053;-33
2024/01/14 05:22:49;;;;;;;1.58;0.90;;;19.00;47.80;;;;;;5051778;28;20061;-32
2024/01/14 05:25:16;;;;;;;2.45;1.40;;;;;;;;;;5051443;28;20049;-33
2024/01/14 05:27:43;;;;;;;2.15;0.93;;;19.10;48.10;;;;;;5058783;28;20106;-32
2024/01/14 05:30:11;;;;;;;1.45;0.98;;;19.20;42.80;;;;;;5071454;28;20098;-30
2024/01/14 05:32:38;;;;;;;2.33;0.90;;;19.00;47.90;;;;;;5071710;28;20048;-34
2024/01/14 05:35:06;;;;;;;2.05;1.00;;;19.50;48.20;;;;;;5071597;28;20068;-26
2024/01/14 05:37:33;;;;;;;1.92;1.02;;;19.50;48.30;;;;;;5071101;28;20056;-25
2024/01/14 05:40:00;;;;;;;1.38;0.88;;;19.40;48.30;;;;;;5071407;28;20685;-26
2024/01/14 05:42:27;;;;;;;2.55;0.98;;;19.50;45.80;;;;;;5071571;28;20090;-26
2024/01/14 05:44:54;;;;;;;2.88;1.15;;;;;;;;;;5056613;28;20118;-27
2024/01/14 05:47:21;;;;;;;2.63;1.08;;;;;;;;;;5051611;28;20053;-29
2024/01/14 05:49:48;;;;;;;2.55;1.27;;;19.60;44.70;;;;;;5069564;28;20057;-26
2024/01/14 05:52:16;;;;;;;2.85;1.00;;;19.30;42.70;;;;;;5071460;28;20052;-30
2024/01/14 05:54:43;;;;;;;1.75;1.00;;;19.20;42.60;;;;;;5071575;28;20463;-30
2024/01/14 05:57:10;;;;;;;2.63;1.23;;;20.00;46.10;;;;;;5071078;28;20126;-26
2024/01/14 05:59:37;;;;;;;2.60;0.98;;;;;;;;;;5070408;28;20053;-28
2024/01/14 06:02:04;;;;;;;2.67;1.30;;;19.10;48.00;;;;;;5052076;28;20413;-27
2024/01/14 06:04:31;;;;;;;2.65;1.00;;;;;;;;;;5055369;28;20072;-31
2024/01/14 06:06:59;;;;;;;1.10;0.65;;;19.30;47.90;;;;;;5055098;28;20433;-26
2024/01/14 06:09:27;;;;;;;3.17;1.10;;;19.30;44.20;;;;;;5058584;28;20068;-28
2024/01/14 06:11:54;;;;;;;2.80;1.00;;;;;;;;;;5075082;28;20090;-28
2024/01/14 06:14:21;;;;;;;2.75;1.00;;;19.00;47.80;;;;;;5075060;28;20047;-26
2024/01/14 06:16:48;;;;;;;2.15;1.00;;;;;;;;;;5071639;28;20193;-28
2024/01/14 06:19:15;;;;;;;3.67;1.50;;;19.20;48.00;;;;;;5054843;28;20045;-27
2024/01/14 06:21:42;;;;;;;3.00;0.95;;;;;;;;;;5054811;28;20053;-29
2024/01/14 06:24:09;;;;;;;3.63;1.08;;;19.40;48.00;;;;;;5054749;28;20088;-26
2024/01/14 06:26:37;;;;;;;1.83;0.88;;;19.20;42.60;;;;;;5054791;28;20092;-30
2024/01/14 06:29:04;;;;;;;2.35;1.00;;;;;;;;;;5054916;28;20052;-29
2024/01/14 06:31:31;;;;;;;3.42;1.15;;;19.10;48.10;;;;;;5054541;28;20052;-27
2024/01/14 06:33:58;;;;;;;2.20;1.00;;;19.10;47.80;;;;;;5055774;28;20616;-26
2024/01/14 06:36:24;;;;;;;1.25;0.80;;;19.10;47.60;;;;;;5058559;28;20572;-26
2024/01/14 06:38:51;;;;;;;1.75;0.98;;;18.40;47.70;;;;;;5074894;28;20052;-26
2024/01/14 06:41:19;;;;;;;3.05;1.10;;;19.50;42.80;;;;;;5074542;28;20148;-28
2024/01/14 06:43:47;;;;;;;3.63;1.30;;;19.40;44.10;;;;;;5074549;28;20052;-26
2024/01/14 06:46:14;;;;;;;2.80;1.10;;;19.90;48.50;;;;;;5073975;28;20102;-26
2024/01/14 06:48:40;;;;;;;1.70;1.05;;;19.30;44.30;;;;;;5074502;28;20060;-29
2024/01/14 06:51:07;;;;;;;2.30;0.98;;;19.40;47.90;;;;;;5056057;28;20053;-26
2024/01/14 06:53:34;;;;;;;2.60;1.02;;;19.00;48.00;;;;;;5054615;28;20048;-26
2024/01/14 06:56:01;;;;;;;2.17;1.00;;;18.40;45.00;;;;;;5055314;28;20099;-29
2024/01/14 06:58:28;;;;;;;1.77;1.00;;;19.60;48.40;;;;;;5074518;28;20127;-26
2024/01/14 07:00:56;;;;;;;1.75;1.00;;;19.50;46.30;;;;;;5072361;28;20056;-27
2024/01/14 07:03:23;;;;;;;3.70;1.08;;;19.50;48.30;;;;;;5064088;28;20057;-27
2024/01/14 07:05:50;;;;;;;2.20;1.10;;;19.40;48.00;;;;;;5063299;28;20067;-26
2024/01/14 07:08:17;;;;;;;2.47;1.00;;;;;;;;;;5062693;28;20095;-30
2024/01/14 07:10:44;;;;;;;2.88;1.13;;;19.50;48.20;;;;;;5064666;28;20489;-26
2024/01/14 07:13:11;;;;;;;2.60;1.00;;;;;;;;;;5062644;28;20044;-29
2024/01/14 07:15:38;;;;;;;1.70;0.90;;;19.50;48.00;;;;;;5062598;28;20045;-26
2024/01/14 07:18:07;;;;;;;2.40;1.10;;;19.30;42.60;;;;;;5062396;28;20044;-30
2024/01/14 07:20:33;;;;;;;1.67;1.02;;;18.90;43.10;;;;;;5063262;28;20106;-30
2024/01/14 07:23:00;;;;;;;2.20;0.95;;;;;;;;;;5060365;28;20546;-26
2024/01/14 07:25:28;;;;;;;2.97;1.10;;;;;;;;;;5053324;28;20045;-28
2024/01/14 07:27:54;;;;;;;3.40;1.13;;;19.30;47.50;;;;;;5053555;28;20103;-26
2024/01/14 07:30:22;;;;;;;2.00;0.82;;;;;;;;;;5053153;28;20045;-26
2024/01/14 07:32:48;;;;;;;1.38;0.90;;;19.90;48.00;;;;;;5062433;28;20049;-26
2024/01/14 07:35:17;;;;;;;2.13;1.00;;;20.40;48.00;;;;;;5062959;28;20056;-26
2024/01/14 07:37:44;;;;;;;3.40;1.00;;;;;;;;;;5062433;28;20740;-26
2024/01/14 07:40:11;;;;;;;1.90;0.90;;;20.20;47.90;;;;;;5062695;28;20098;-26
2024/01/14 07:42:38;;;;;;;3.78;1.10;;;;;;;;;;5062771;28;21610;-30
2024/01/14 07:45:07;;;;;;;2.63;1.10;;;20.50;47.80;;;;;;5062385;28;20048;-26
2024/01/14 07:47:33;;;;;;;1.58;0.90;;;20.60;47.90;;;;;;5062285;28;20143;-26
2024/01/14 07:50:01;;;;;;;2.42;1.13;;;;;;;;;;5064069;28;20048;-27
2024/01/14 07:52:29;;;;;;;2.83;1.00;;;19.70;47.20;;;;;;5062391;28;20057;-26
2024/01/14 07:54:55;;;;;;;5.18;1.10;;;20.20;47.70;;;;;;5060799;28;20049;-26
2024/01/14 07:57:22;;;;;;;2.33;1.08;;;19.80;47.10;;;;;;5063483;28;20139;-31
2024/01/14 07:59:49;;;;;;;2.53;1.17;;;19.90;47.10;;;;;;5062277;28;20437;-26
2024/01/14 08:02:16;;;;;;;2.22;0.88;;;19.30;46.70;;;;;;5062255;28;20041;-26
2024/01/14 08:04:44;;;;;;;1.88;0.80;;;20.10;47.30;;;;;;5063854;28;20048;-30
2024/01/14 08:07:11;;;;;;;2.65;1.05;;;20.00;45.30;;;;;;5062565;28;20066;-26
2024/01/14 08:09:39;;;;;;;2.20;0.98;;;19.80;46.90;;;;;;5062214;28;20045;-26
2024/01/14 08:12:06;;;;;;;1.83;1.02;;;20.00;46.90;;;;;;5051570;28;20049;-26
2024/01/14 08:14:33;;;;;;;2.15;0.95;;;20.20;44.20;;;;;;5050474;28;20103;-27
2024/01/14 08:17:00;;;;;;;3.72;1.20;;;;;;;;;;5050630;28;20071;-26
2024/01/14 08:19:27;;;;;;;3.10;1.20;;;;;;;;;;5050982;28;20103;-31
2024/01/14 08:21:54;;;;;;;2.90;1.20;;;20.90;47.30;;;;;;5050837;28;20053;-26
2024/01/14 08:24:21;;;;;;;2.72;1.17;;;;;;;;;;5050729;28;20045;-30
2024/01/14 08:26:50;;;;;;;3.00;1.30;;;20.10;46.60;;;;;;5049411;28;20053;-26
2024/01/14 08:29:17;;;;;;;2.50;1.10;;;;;;;;;;5051775;28;20083;-29
2024/01/14 08:31:44;;;;;;;1.77;0.93;;;20.40;46.70;;;;;;5052385;28;20045;-27
2024/01/14 08:34:11;;;;;;;2.13;1.13;;;20.10;46.80;;;;;;5052542;28;20445;-26
2024/01/14 08:36:38;;;;;;;3.97;1.00;;;;;;;;;;5058252;28;20045;-29
2024/01/14 08:39:05;;;;;;;2.15;1.20;;;20.30;46.60;;;;;;5066660;28;20055;-26
2024/01/14 08:41:32;;;;;;;2.15;1.10;;;;;;;;;;5055774;28;20102;-29
2024/01/14 08:44:04;;;;;;;1.77;0.88;;;20.30;46.70;;;;;;5072352;28;20114;-33
2024/01/14 08:46:31;;;;;;;1.95;1.00;;;20.10;46.60;;;;;;5072342;28;20048;-34
2024/01/14 08:48:57;;;;;;;3.22;1.17;;;20.50;46.50;;;;;;5071953;28;20513;-34
2024/01/14 08:51:24;;;;;;;3.47;1.05;;;;;;;;;;5071957;28;20060;-31
2024/01/14 08:53:51;;;;;;;1.75;1.00;;;20.10;46.20;;;;;;5071433;28;20048;-34
2024/01/14 08:56:18;;;;;;;1.77;0.93;;;21.20;46.80;;;;;;5071953;28;20044;-29
2024/01/14 08:58:45;;;;;;;1.75;0.80;;;20.60;46.70;;;;;;5071342;28;20094;-34
2024/01/14 09:01:13;;;;;;;1.48;0.90;;;20.40;46.50;;;;;;5060877;28;20094;-35
2024/01/14 09:03:40;;;;;;;4.63;1.08;;;20.60;46.30;;;;;;5062776;28;20390;-26
2024/01/14 09:06:07;;;;;;;2.92;1.20;;;;;;;;;;5061065;28;20166;-29
2024/01/14 09:08:34;;;;;;;2.53;1.33;;;20.60;46.60;;;;;;5066239;28;20126;-26
2024/01/14 09:11:01;;;;;;;2.22;1.00;;;;;;;;;;5072095;28;20121;-31
2024/01/14 09:13:28;;;;;;;2.03;1.00;;;20.40;46.40;;;;;;5071086;28;20488;-26
2024/01/14 09:15:55;;;;;;;2.85;1.10;;;21.10;46.50;;;;;;5051831;28;20102;-29
2024/01/14 09:18:23;;;;;;;1.40;0.82;;;21.30;46.90;;;;;;5052019;28;20103;-27
2024/01/14 09:20:50;;;;;;;1.40;0.90;;;;;;;;;;5051684;28;20049;-26
2024/01/14 09:23:17;;;;;;;2.63;1.10;;;;;;;;;;5051828;28;20471;-30
2024/01/14 09:25:44;;;;;;;2.97;1.20;;;20.80;47.10;;;;;;5051467;28;20084;-32
2024/01/14 09:28:11;;;;;;;1.95;1.00;;;21.20;46.50;;;;;;5062508;28;20056;-34
2024/01/14 09:30:38;;;;;;;2.55;0.90;;;21.40;46.50;;;;;;5060327;28;20110;-32
2024/01/14 09:33:05;;;;;;;1.10;0.80;;;20.90;47.00;;;;;;5061598;28;20080;-34
2024/01/14 09:35:33;;;;;;;2.20;0.93;;;20.10;43.90;;;;;;5059955;28;20052;-34
2024/01/14 09:38:00;;;;;;;2.97;0.80;;;21.10;46.50;;;;;;5064619;28;20045;-32
2024/01/14 09:40:27;;;;;;;1.27;0.90;;;21.20;46.20;;;;;;5063997;28;20053;-35
2024/01/14 09:42:54;;;;;;;4.00;0.95;;;;;;;;;;5063853;28;20398;-31
2024/01/14 09:45:21;;;;;;;1.90;0.90;;;20.90;45.80;;;;;;5063588;28;20090;-27
2024/01/14 09:47:47;;;;;;;2.30;1.10;;;21.30;46.10;;;;;;5062413;28;20087;-26
2024/01/14 09:50:14;;;;;;;3.13;1.00;;;21.70;45.40;;;;;;5062545;28;20106;-27
2024/01/14 09:52:43;;;;;;;2.72;1.00;;;21.00;46.20;;;;;;5064443;28;20098;-26
2024/01/14 09:55:10;;;;;;;1.83;0.82;;;20.90;46.20;;;;;;5058378;28;20074;-26
2024/01/14 09:57:37;;;;;;;2.20;1.00;;;20.60;45.60;;;;;;5060337;28;20490;-27
2024/01/14 10:00:05;;;;;;;1.42;0.70;;;21.00;46.50;;;;;;5055253;28;20057;-26
2024/01/14 10:02:32;;;;;;;1.80;0.90;;;21.00;46.50;;;;;;5055284;28;20049;-27
2024/01/14 10:04:59;;;;;;;1.25;0.80;;;20.90;45.60;;;;;;5055384;28;20053;-27
2024/01/14 10:07:26;;;;;;;1.90;0.90;;;20.40;45.40;;;;;;5064243;28;20086;-26
2024/01/14 10:09:54;;;;;;;3.22;0.90;;;20.90;45.70;;;;;;5075235;28;20048;-28
2024/01/14 10:12:21;;;;;;;3.03;0.98;;;20.40;45.20;;;;;;5075147;28;20048;-26
2024/01/14 10:14:57;;;;;;;2.40;0.98;;;20.90;45.60;;;;;;5074903;28;20097;-36
2024/01/14 10:17:24;;;;;;;2.58;1.00;;;21.20;46.10;;;;;;5075045;28;20203;-33
2024/01/14 10:19:53;;;;;;;2.17;0.90;;;20.90;41.40;;;;;;5075094;28;20052;-30
2024/01/14 10:22:20;;;;;;;2.17;1.00;;;20.30;45.20;;;;;;5074751;28;20485;-33
2024/01/14 10:24:51;;;;;;;2.78;1.20;;;20.90;46.40;;;;;;5074523;28;20048;-35
2024/01/14 10:27:19;;;;;;;1.85;0.90;;;20.40;45.50;;;;;;5074891;28;20052;-25
2024/01/14 10:29:46;;;;;;;2.40;0.82;;;21.00;45.90;;;;;;5074625;28;20052;-27
2024/01/14 10:32:13;;;;;;;2.13;0.80;;;20.80;45.80;;;;;;5075281;28;20102;-29
2024/01/14 10:34:40;;;;;;;3.38;1.20;;;20.90;45.00;;;;;;5074758;28;20456;-33
2024/01/14 10:37:07;;;;;;;1.98;1.00;;;20.30;45.90;;;;;;5074161;28;20578;-30
2024/01/14 10:39:34;;;;;;;2.42;0.98;;;;;;;;;;5074891;28;20049;-34
2024/01/14 10:42:02;;;;;;;1.80;1.10;;;;;;;;;;5074463;28;20493;-32
2024/01/14 10:44:30;;;;;;;2.50;1.05;;;20.30;45.70;;;;;;5074666;28;20056;-33
2024/01/14 10:46:58;;;;;;;2.05;1.00;;;20.90;46.20;;;;;;5074487;28;20519;-31
2024/01/14 10:49:26;;;;;;;1.88;0.80;;;20.70;46.20;;;;;;5073721;28;20084;-26
2024/01/14 10:51:55;;;;;;;1.80;0.80;;;20.30;46.20;;;;;;5074469;28;20052;-35
2024/01/14 10:54:26;;;;;;;1.88;0.90;;;20.90;46.40;;;;;;5074610;28;20102;-33
2024/01/14 10:56:57;;;;;;;3.50;1.17;;;20.80;47.20;;;;;;5073911;28;20566;-34
2024/01/14 10:59:24;;;;;;;2.05;0.95;;;;;;;;;;5074551;28;20474;-33
2024/01/14 11:01:55;;;;;;;2.00;1.00;;;20.40;46.50;;;;;;5074273;28;20052;-32
2024/01/14 11:04:22;;;;;;;2.40;0.90;;;20.30;46.40;;;;;;5074382;28;20505;-33
2024/01/14 11:06:55;;;;;;;3.33;1.02;;;20.60;47.30;;;;;;5074247;28;20045;-26
2024/01/14 11:09:22;;;;;;;1.92;1.00;;;19.80;46.00;;;;;;5074110;28;20059;-25
2024/01/14 11:11:51;;;;;;;1.70;0.98;;;20.40;42.00;;;;;;5073830;28;20615;-32
2024/01/14 11:14:21;;;;;;;2.40;1.13;;;20.70;47.60;;;;;;5074389;28;20110;-35
2024/01/14 11:16:52;;;;;;;2.25;1.10;;;20.50;46.80;;;;;;5074108;28;20052;-31
2024/01/14 11:19:21;;;;;;;1.25;0.90;;;20.00;42.10;;;;;;5074278;28;20177;-30
2024/01/14 11:21:52;;;;;;;1.95;1.00;;;19.90;47.30;;;;;;5073748;28;20052;-32
2024/01/14 11:24:20;;;;;;;1.63;0.90;;;20.00;45.70;;;;;;5073787;28;20485;-31
2024/01/14 11:26:47;;;;;;;1.20;0.88;;;19.70;46.60;;;;;;5073742;28;20106;-33
2024/01/14 11:29:14;;;;;;;2.60;1.08;;;19.40;45.10;;;;;;5073946;28;20110;-26
2024/01/14 11:32:07;;;;;;;1.60;0.82;;;20.00;43.10;;;;;;5073738;28;20052;-33
2024/01/14 11:34:55;;;;;;;1.80;0.93;;;19.30;45.70;;;;;;5073358;28;20109;-34
2024/01/14 11:37:37;;;;;;;2.65;1.00;;;19.10;45.60;;;;;;5073105;28;20509;-26
2024/01/14 11:40:28;;;;;;;1.30;0.88;;;18.90;47.50;;;;;;5073574;28;20048;-26
2024/01/14 11:42:57;;;;;;;2.40;1.02;;;19.70;47.20;;;;;;5069743;28;20424;-33
2024/01/14 11:45:34;;;;;;;1.92;1.10;;;19.60;47.30;;;;;;5070281;28;20471;-26
2024/01/14 11:48:03;;;;;;;2.95;0.90;;;19.10;47.10;;;;;;5070625;28;20044;-26
2024/01/14 11:50:31;;;;;;;2.53;1.00;;;19.30;46.40;;;;;;5071829;28;20044;-33
2024/01/14 11:52:59;;;;;;;1.80;0.90;;;20.10;47.90;;;;;;5061831;28;20494;-33
2024/01/14 11:55:27;;;;;;;3.00;1.23;;;19.40;42.80;;;;;;5063056;28;20052;-31
2024/01/14 11:57:55;;;;;;;2.35;0.77;;;;;;;;;;5063444;28;20045;-36
2024/01/14 12:00:23;;;;;;;1.10;0.70;;;19.40;42.40;;;;;;5061521;28;20060;-28
2024/01/14 12:03:03;;;;;;;1.48;0.90;;;19.70;46.30;;;;;;5062683;28;20067;-27
2024/01/14 12:05:31;;;;;;;2.67;0.85;;;19.50;42.60;;;;;;5052310;28;20090;-28
2024/01/14 12:07:58;;;;;;;1.50;0.68;;;;;;;;;;5051617;28;20497;-27
2024/01/14 12:10:26;;;;;;;1.52;0.77;;;18.90;47.80;;;;;;5059773;28;20048;-26
2024/01/14 12:12:53;;;;;;;1.27;0.80;;;;;;;;;;5062233;28;20051;-26
2024/01/14 12:15:20;;;;;;;2.25;1.10;;;19.10;47.30;;;;;;5062132;28;20090;-26
2024/01/14 12:17:53;;;;;;;2.00;0.90;;;19.10;46.80;;;;;;5061769;28;20098;-35
2024/01/14 12:20:22;;;;;;;2.25;0.85;;;19.40;42.60;;;;;;5061200;28;20497;-28
2024/01/14 12:22:55;;;;;;;1.20;0.80;;;21.20;43.60;;;;;;5064514;28;20098;-32
2024/01/14 12:25:22;;;;;;;1.15;0.88;;;19.80;48.00;;;;;;5063350;28;20080;-25
2024/01/14 12:27:49;;;;;;;1.77;0.88;;;;;;;;;;5057773;28;20044;-29
2024/01/14 12:30:26;;;;;;;1.88;0.80;;;19.80;47.40;;;;;;5062969;28;20052;-34
2024/01/14 12:32:53;;;;;;;2.30;0.82;;;19.40;47.00;;;;;;5052091;28;20041;-31
2024/01/14 12:35:20;;;;;;;2.90;0.98;;;19.70;47.50;;;;;;5052064;28;20546;-26
2024/01/14 12:37:47;;;;;;;1.40;0.70;;;;;;;;;;5057877;28;20053;-33
2024/01/14 12:40:15;;;;;;;2.15;0.93;;;19.90;47.40;;;;;;5057985;28;20106;-27
2024/01/14 12:42:42;;;;;;;1.83;0.88;;;19.90;47.40;;;;;;5072298;28;20052;-26
2024/01/14 12:45:09;;;;;;;1.27;0.70;;;19.90;42.30;;;;;;5072272;28;20044;-30
2024/01/14 12:47:36;;;;;;;2.00;0.90;;;20.10;46.40;;;;;;5065359;28;20087;-26
2024/01/14 12:50:04;;;;;;;1.88;0.90;;;;;;;;;;5061986;28;20090;-31
2024/01/14 12:52:30;;;;;;;2.30;0.82;;;19.70;46.50;;;;;;5063763;28;20091;-26
2024/01/14 12:54:57;;;;;;;1.98;0.77;;;20.30;47.50;;;;;;5061146;28;20603;-35
2024/01/14 12:57:25;;;;;;;1.42;0.70;;;19.70;45.50;;;;;;5059992;28;20107;-35
2024/01/14 12:59:53;;;;;;;1.45;0.70;;;21.00;42.60;;;;;;5060674;28;20445;-33
2024/01/14 13:02:20;;;;;;;1.60;0.80;;;;;;;;;;5061342;28;20048;-30
2024/01/14 13:04:48;;;;;;;2.10;0.88;;;20.80;46.60;;;;;;5062465;28;20052;-30
2024/01/14 13:07:15;;;;;;;1.98;0.88;;;19.50;46.00;;;;;;5060981;28;20124;-36
2024/01/14 13:09:41;;;;;;;1.27;0.60;;;20.40;46.40;;;;;;5063406;28;20127;-32